createdAt,value
2019-02-22T00:01:49.054Z,14.67
2019-02-22T00:04:18.125Z,14.00
2019-02-22T00:06:47.355Z,14.43
2019-02-22T00:09:16.784Z,14.78
2019-02-22T00:11:45.786Z,12.83
2019-02-22T00:14:15.148Z,14.15
2019-02-22T00:16:44.107Z,14.30
2019-02-22T00:19:13.431Z,14.78
2019-02-22T00:21:42.479Z,14.77
2019-02-22T00:24:12.039Z,14.68
2019-02-22T00:26:40.905Z,14.70
2019-02-22T00:29:10.274Z,15.75
2019-02-22T00:31:39.507Z,15.80
2019-02-22T00:34:09.690Z,15.58
2019-02-22T00:36:38.691Z,14.87
2019-02-22T00:39:07.705Z,16.02
2019-02-22T00:41:36.688Z,16.65
2019-02-22T00:44:05.655Z,15.65
2019-02-22T00:46:34.916Z,17.17
2019-02-22T00:49:03.785Z,15.72
2019-02-22T00:51:32.621Z,17.17
2019-02-22T00:54:01.499Z,17.37
2019-02-22T00:56:30.462Z,16.53
2019-02-22T00:58:59.472Z,15.60
2019-02-22T01:01:28.470Z,15.80
2019-02-22T01:03:57.395Z,16.80
2019-02-22T01:06:26.825Z,17.23
2019-02-22T01:08:55.785Z,16.65
2019-02-22T01:11:24.826Z,18.97
2019-02-22T01:13:53.706Z,18.95
2019-02-22T01:16:22.726Z,19.83
2019-02-22T01:18:51.644Z,20.40
2019-02-22T01:21:20.620Z,20.57
2019-02-22T01:23:49.847Z,19.98
2019-02-22T01:26:18.799Z,20.03
2019-02-22T01:28:47.815Z,21.00
2019-02-22T01:31:16.820Z,20.37
2019-02-22T01:33:45.746Z,20.00
2019-02-22T01:36:14.772Z,20.30
2019-02-22T01:38:43.715Z,19.98
2019-02-22T01:41:12.790Z,20.27
2019-02-22T01:43:41.770Z,20.88
2019-02-22T01:46:10.699Z,20.30
2019-02-22T01:48:39.947Z,19.80
2019-02-22T01:51:08.895Z,19.57
2019-02-22T01:53:37.834Z,18.77
2019-02-22T01:56:06.795Z,20.23
2019-02-22T01:58:36.060Z,19.07
2019-02-22T02:01:05.527Z,18.17
2019-02-22T02:03:34.719Z,17.77
2019-02-22T02:06:03.540Z,18.60
2019-02-22T02:08:33.483Z,17.27
2019-02-22T02:11:02.546Z,16.80
2019-02-22T02:13:31.402Z,17.17
2019-02-22T02:16:00.235Z,16.20
2019-02-22T02:18:29.199Z,16.50
2019-02-22T02:20:58.515Z,17.20
2019-02-22T02:23:27.798Z,17.02
2019-02-22T02:25:56.783Z,17.70
2019-02-22T02:28:25.799Z,18.12
2019-02-22T02:30:55.134Z,17.17
2019-02-22T02:33:24.176Z,18.02
2019-02-22T02:35:52.980Z,17.00
2019-02-22T02:38:21.959Z,18.23
2019-02-22T02:40:50.809Z,16.37
2019-02-22T02:43:19.845Z,17.80
2019-02-22T02:45:48.787Z,17.73
2019-02-22T02:48:18.043Z,17.07
2019-02-22T02:50:47.119Z,16.23
2019-02-22T02:53:16.294Z,15.18
2019-02-22T02:55:45.652Z,14.63
2019-02-22T02:58:14.647Z,14.30
2019-02-22T03:00:43.873Z,13.83
2019-02-22T03:03:12.817Z,12.07
2019-02-22T03:06:03.937Z,12.73
2019-02-22T03:08:34.941Z,11.68
2019-02-22T03:11:04.227Z,11.97
2019-02-22T03:13:33.179Z,11.68
2019-02-22T03:16:02.544Z,11.47
2019-02-22T03:18:31.399Z,10.00
2019-02-22T03:21:00.383Z,10.20
2019-02-22T03:23:30.002Z,10.85
2019-02-22T03:25:58.926Z,11.10
2019-02-22T03:28:27.855Z,11.18
2019-02-22T03:30:56.912Z,10.27
2019-02-22T03:33:25.884Z,10.38
2019-02-22T03:35:55.338Z,9.13
2019-02-22T03:38:24.370Z,10.82
2019-02-22T03:40:53.635Z,9.93
2019-02-22T03:43:22.622Z,10.63
2019-02-22T03:45:51.616Z,10.07
2019-02-22T03:48:20.689Z,11.55
2019-02-22T03:50:49.904Z,9.60
2019-02-22T03:53:41.337Z,11.00
2019-02-22T03:56:10.275Z,10.73
2019-02-22T03:58:39.602Z,11.65
2019-02-22T04:01:08.636Z,11.77
2019-02-22T04:03:37.676Z,11.45
2019-02-22T04:06:07.322Z,10.60
2019-02-22T04:08:36.384Z,10.45
2019-02-22T04:11:05.421Z,10.97
2019-02-22T04:13:34.853Z,10.48
2019-02-22T04:16:04.206Z,10.40
2019-02-22T04:18:33.129Z,9.50
2019-02-22T04:21:02.822Z,10.30
2019-02-22T04:23:32.029Z,9.13
2019-02-22T04:26:01.038Z,10.40
2019-02-22T04:28:29.976Z,10.53
2019-02-22T04:30:59.294Z,10.03
2019-02-22T04:33:28.218Z,9.78
2019-02-22T04:35:57.214Z,10.20
2019-02-22T04:38:26.091Z,10.23
2019-02-22T04:40:54.956Z,10.47
2019-02-22T04:43:23.931Z,9.30
2019-02-22T04:45:53.154Z,9.60
2019-02-22T04:48:22.503Z,10.13
2019-02-22T04:50:52.209Z,9.17
2019-02-22T04:53:21.573Z,9.65
2019-02-22T04:55:50.909Z,9.73
2019-02-22T04:58:20.309Z,9.85
2019-02-22T05:00:49.539Z,9.30
2019-02-22T05:03:18.381Z,8.68
2019-02-22T05:05:47.459Z,9.23
2019-02-22T05:08:16.367Z,10.48
2019-02-22T05:10:45.467Z,8.93
2019-02-22T05:13:14.322Z,9.28
2019-02-22T05:15:43.364Z,9.27
2019-02-22T05:18:12.803Z,8.73
2019-02-22T05:20:41.682Z,8.63
2019-02-22T05:23:10.678Z,9.18
2019-02-22T05:25:39.603Z,9.13
2019-02-22T05:28:08.491Z,8.48
2019-02-22T05:30:37.727Z,10.10
2019-02-22T05:33:06.903Z,10.18
2019-02-22T05:35:35.986Z,9.73
2019-02-22T05:38:05.242Z,10.35
2019-02-22T05:40:34.095Z,9.47
2019-02-22T05:43:03.041Z,10.10
2019-02-22T05:45:32.410Z,10.93
2019-02-22T05:48:01.692Z,10.13
2019-02-22T05:50:30.582Z,10.83
2019-02-22T05:52:59.715Z,11.85
2019-02-22T05:55:28.840Z,11.53
2019-02-22T05:57:57.799Z,9.83
2019-02-22T06:00:26.722Z,11.33
2019-02-22T06:02:55.682Z,11.15
2019-02-22T06:05:24.663Z,11.12
2019-02-22T06:07:53.714Z,11.48
2019-02-22T06:10:22.842Z,10.80
2019-02-22T06:12:51.922Z,12.40
2019-02-22T06:15:20.785Z,12.25
2019-02-22T06:17:49.666Z,11.88
2019-02-22T06:20:18.614Z,10.43
2019-02-22T06:22:48.097Z,11.88
2019-02-22T06:25:17.324Z,12.37
2019-02-22T06:27:46.592Z,11.33
2019-02-22T06:30:15.888Z,11.22
2019-02-22T06:32:44.795Z,11.93
2019-02-22T06:35:13.772Z,11.48
2019-02-22T06:37:43.523Z,11.83
2019-02-22T06:40:12.703Z,12.18
2019-02-22T06:42:45.658Z,12.75
2019-02-22T06:45:12.409Z,13.93
2019-02-22T06:47:41.384Z,13.15
2019-02-22T06:50:10.338Z,13.22
2019-02-22T06:52:39.276Z,11.93
2019-02-22T06:55:08.299Z,11.78
2019-02-22T06:57:37.287Z,13.50
2019-02-22T07:00:06.731Z,12.95
2019-02-22T07:02:35.658Z,12.37
2019-02-22T07:05:04.919Z,13.43
2019-02-22T07:07:33.880Z,13.00
2019-02-22T07:10:02.807Z,13.20
2019-02-22T07:12:35.326Z,13.30
2019-02-22T07:15:04.830Z,13.05
2019-02-22T07:17:33.886Z,13.05
2019-02-22T07:20:02.863Z,14.58
2019-02-22T07:22:31.768Z,13.70
2019-02-22T07:25:00.755Z,14.07
2019-02-22T07:27:29.682Z,12.87
2019-02-22T07:29:58.599Z,12.60
2019-02-22T07:32:27.446Z,13.00
2019-02-22T07:34:56.451Z,12.45
2019-02-22T07:37:25.707Z,12.93
2019-02-22T07:39:54.539Z,13.60
2019-02-22T07:42:23.486Z,12.37
2019-02-22T07:44:52.434Z,14.73
2019-02-22T07:47:21.651Z,14.73
2019-02-22T07:49:50.512Z,13.88
2019-02-22T07:52:19.529Z,14.30
2019-02-22T07:54:48.755Z,14.43
2019-02-22T07:57:17.723Z,13.63
2019-02-22T07:59:47.012Z,14.60
2019-02-22T08:02:16.103Z,13.97
2019-02-22T08:04:45.439Z,14.30
2019-02-22T08:07:14.393Z,14.67
2019-02-22T08:09:43.262Z,14.50
2019-02-22T08:12:12.115Z,12.60
2019-02-22T08:14:41.120Z,14.20
2019-02-22T08:17:10.209Z,14.75
2019-02-22T08:19:39.512Z,14.25
2019-02-22T08:22:08.783Z,14.43
2019-02-22T08:24:37.747Z,13.08
2019-02-22T08:27:06.711Z,13.97
2019-02-22T08:29:38.163Z,13.93
2019-02-22T08:32:06.266Z,12.10
2019-02-22T08:34:35.230Z,14.53
2019-02-22T08:37:04.208Z,13.67
2019-02-22T08:39:33.335Z,15.03
2019-02-22T08:42:02.349Z,13.50
2019-02-22T08:44:31.760Z,14.53
2019-02-22T08:47:00.875Z,13.73
2019-02-22T08:49:29.851Z,13.50
2019-02-22T08:51:58.770Z,14.30
2019-02-22T08:54:27.772Z,13.15
2019-02-22T08:56:57.059Z,12.33
2019-02-22T08:59:26.043Z,14.33
2019-02-22T09:01:55.050Z,13.83
2019-02-22T09:04:24.373Z,14.58
2019-02-22T09:06:53.313Z,13.53
2019-02-22T09:09:22.634Z,13.55
2019-02-22T09:11:51.691Z,15.67
2019-02-22T09:14:20.658Z,14.90
2019-02-22T09:16:49.505Z,13.00
2019-02-22T09:19:18.375Z,14.60
2019-02-22T09:21:48.025Z,13.13
2019-02-22T09:24:16.918Z,13.00
2019-02-22T09:26:45.782Z,12.75
2019-02-22T09:29:14.678Z,14.13
2019-02-22T09:31:43.612Z,13.40
2019-02-22T09:34:12.469Z,13.40
2019-02-22T09:36:41.845Z,12.97
2019-02-22T09:39:10.740Z,13.33
2019-02-22T09:41:39.889Z,12.73
2019-02-22T09:44:08.954Z,12.60
2019-02-22T09:46:37.878Z,12.53
2019-02-22T09:49:06.834Z,12.90
2019-02-22T09:51:36.010Z,13.07
2019-02-22T09:54:05.110Z,11.83
2019-02-22T09:56:34.034Z,12.50
2019-02-22T09:59:03.119Z,11.27
2019-02-22T10:01:32.487Z,11.50
2019-02-22T10:04:01.314Z,10.83
2019-02-22T10:06:30.383Z,11.37
2019-02-22T10:08:59.599Z,10.80
2019-02-22T10:11:28.629Z,10.37
2019-02-22T10:14:06.324Z,10.20
2019-02-22T10:16:28.231Z,10.83
2019-02-22T10:18:57.523Z,10.10
2019-02-22T10:21:27.154Z,10.77
2019-02-22T10:23:56.346Z,10.23
2019-02-22T10:26:25.613Z,10.43
2019-02-22T10:28:54.523Z,9.67
2019-02-22T10:31:23.499Z,10.13
2019-02-22T10:33:52.582Z,9.87
2019-02-22T10:36:21.895Z,9.53
2019-02-22T10:38:51.118Z,10.00
2019-02-22T10:41:20.142Z,10.67
2019-02-22T10:43:49.202Z,10.13
2019-02-22T10:46:18.276Z,9.57
2019-02-22T10:48:47.427Z,10.93
2019-02-22T10:51:16.569Z,9.70
2019-02-22T10:53:45.787Z,8.73
2019-02-22T10:56:14.827Z,8.03
2019-02-22T10:58:43.746Z,8.17
2019-02-22T11:01:12.724Z,7.93
2019-02-22T11:03:41.570Z,8.00
2019-02-22T11:06:10.822Z,7.47
2019-02-22T11:08:39.814Z,7.07
2019-02-22T11:11:08.989Z,6.93
2019-02-22T11:13:37.843Z,4.50
2019-02-22T11:16:06.732Z,4.37
2019-02-22T11:18:35.666Z,3.00
2019-02-22T11:21:04.614Z,3.27
2019-02-22T11:23:33.564Z,3.07
2019-02-22T11:26:02.467Z,3.30
2019-02-22T11:28:31.351Z,2.93
2019-02-22T11:31:00.311Z,2.93
2019-02-22T11:33:29.301Z,2.90
2019-02-22T11:35:58.287Z,2.60
2019-02-22T11:38:27.156Z,2.23
2019-02-22T11:40:56.167Z,2.27
2019-02-22T11:43:25.370Z,2.00
2019-02-22T11:45:54.330Z,1.80
2019-02-22T11:48:23.611Z,1.87
2019-02-22T11:50:52.442Z,2.03
2019-02-22T11:53:21.556Z,1.77
2019-02-22T11:55:50.555Z,1.73
2019-02-22T11:58:19.526Z,2.10
2019-02-22T12:00:48.414Z,1.80
2019-02-22T12:03:24.604Z,1.90
2019-02-22T12:05:48.095Z,2.03
2019-02-22T12:08:17.074Z,1.80
2019-02-22T12:10:45.895Z,2.03
2019-02-22T12:13:14.764Z,1.67
2019-02-22T12:15:43.759Z,2.20
2019-02-22T12:18:12.716Z,1.87
2019-02-22T12:20:41.966Z,2.03
2019-02-22T12:23:10.986Z,2.23
2019-02-22T12:25:39.823Z,2.00
2019-02-22T12:28:08.744Z,1.80
2019-02-22T12:30:37.715Z,2.07
2019-02-22T12:33:06.542Z,2.00
2019-02-22T12:35:35.806Z,1.70
2019-02-22T12:38:04.763Z,1.87
2019-02-22T12:40:33.624Z,1.87
2019-02-22T12:43:02.468Z,2.10
2019-02-22T12:45:31.325Z,1.93
2019-02-22T12:48:00.146Z,1.60
2019-02-22T12:50:29.302Z,1.97
2019-02-22T12:52:59.283Z,2.07
2019-02-22T12:55:28.190Z,1.70
2019-02-22T12:57:57.032Z,2.17
2019-02-22T13:00:26.051Z,1.80
2019-02-22T13:03:01.994Z,1.90
2019-02-22T13:05:26.426Z,1.33
2019-02-22T13:07:55.425Z,1.53
2019-02-22T13:10:24.240Z,1.40
2019-02-22T13:12:53.190Z,1.70
2019-02-22T13:15:22.508Z,1.90
2019-02-22T13:17:51.426Z,1.90
2019-02-22T13:20:20.359Z,1.77
2019-02-22T13:22:49.382Z,1.40
2019-02-22T13:25:18.799Z,1.60
2019-02-22T13:27:48.115Z,1.40
2019-02-22T13:30:17.611Z,1.70
2019-02-22T13:32:46.636Z,1.70
2019-02-22T13:35:15.688Z,1.70
2019-02-22T13:37:44.582Z,1.40
2019-02-22T13:40:13.982Z,1.90
2019-02-22T13:42:42.994Z,1.40
2019-02-22T13:45:12.216Z,1.70
2019-02-22T13:47:41.277Z,1.57
2019-02-22T13:50:12.326Z,1.70
2019-02-22T13:52:41.405Z,1.60
2019-02-22T13:55:10.378Z,1.77
2019-02-22T13:57:39.334Z,1.23
2019-02-22T14:00:11.110Z,1.60
2019-02-22T14:02:40.078Z,1.87
2019-02-22T14:05:09.057Z,1.57
2019-02-22T14:07:38.046Z,1.80
2019-02-22T14:10:07.787Z,1.50
2019-02-22T14:12:36.718Z,1.67
2019-02-22T14:15:06.430Z,1.93
2019-02-22T14:17:35.323Z,1.60
2019-02-22T14:20:04.433Z,1.73
2019-02-22T14:22:33.455Z,2.20
2019-02-22T14:25:03.318Z,1.80
2019-02-22T14:27:32.146Z,2.40
2019-02-22T14:30:01.220Z,1.63
2019-02-22T14:32:30.662Z,1.80
2019-02-22T14:34:59.599Z,2.27
2019-02-22T14:37:28.966Z,1.70
2019-02-22T14:40:03.375Z,1.83
2019-02-22T14:42:28.740Z,2.00
2019-02-22T14:44:57.784Z,2.00
2019-02-22T14:47:26.626Z,1.93
2019-02-22T14:49:55.435Z,2.53
2019-02-22T14:52:24.410Z,2.40
2019-02-22T14:54:53.266Z,2.70
2019-02-22T14:57:22.227Z,2.10
2019-02-22T14:59:51.269Z,2.50
2019-02-22T15:02:20.178Z,2.40
2019-02-22T15:04:49.055Z,1.90
2019-02-22T15:07:18.334Z,2.07
2019-02-22T15:09:47.478Z,2.30
2019-02-22T15:12:16.554Z,2.30
2019-02-22T15:14:45.574Z,2.80
2019-02-22T15:17:19.405Z,2.47
2019-02-22T15:19:48.260Z,2.60
2019-02-22T15:22:17.495Z,2.17
2019-02-22T15:24:46.682Z,2.27
2019-02-22T15:27:15.791Z,2.40
2019-02-22T15:29:44.731Z,2.37
2019-02-22T15:32:13.558Z,2.53
2019-02-22T15:34:42.811Z,2.20
2019-02-22T15:37:11.614Z,2.63
2019-02-22T15:39:40.591Z,2.20
2019-02-22T15:42:09.936Z,2.97
2019-02-22T15:44:39.429Z,2.27
2019-02-22T15:47:11.709Z,2.80
2019-02-22T15:49:39.127Z,2.37
2019-02-22T15:52:10.256Z,1.90
2019-02-22T15:54:39.152Z,1.97
2019-02-22T15:57:08.419Z,2.10
2019-02-22T15:59:37.462Z,2.67
2019-02-22T16:02:06.591Z,2.60
2019-02-22T16:04:57.763Z,1.93
2019-02-22T16:07:26.771Z,1.90
2019-02-22T16:09:56.150Z,1.83
2019-02-22T16:12:25.078Z,1.93
2019-02-22T16:14:54.070Z,1.57
2019-02-22T16:17:23.112Z,1.60
2019-02-22T16:19:51.991Z,1.93
2019-02-22T16:22:20.879Z,1.93
2019-02-22T16:24:49.857Z,1.80
2019-02-22T16:27:18.791Z,2.10
2019-02-22T16:29:47.686Z,2.07
2019-02-22T16:32:16.666Z,1.87
2019-02-22T16:34:46.745Z,2.00
2019-02-22T16:37:16.235Z,1.70
2019-02-22T16:39:45.110Z,2.00
2019-02-22T16:42:13.951Z,1.73
2019-02-22T16:44:42.785Z,1.80
2019-02-22T16:47:12.052Z,1.90
2019-02-22T16:49:41.139Z,1.80
2019-02-22T16:52:10.164Z,1.87
2019-02-22T16:54:39.736Z,1.67
2019-02-22T16:57:08.552Z,1.80
2019-02-22T16:59:37.406Z,2.00
2019-02-22T17:02:06.719Z,1.83
2019-02-22T17:04:35.683Z,1.80
2019-02-22T17:07:05.023Z,1.63
2019-02-22T17:09:34.026Z,1.77
2019-02-22T17:12:06.334Z,1.30
2019-02-22T17:14:33.633Z,1.90
2019-02-22T17:17:02.618Z,1.90
2019-02-22T17:19:32.069Z,1.70
2019-02-22T17:22:01.038Z,2.03
2019-02-22T17:24:30.040Z,2.47
2019-02-22T17:26:58.998Z,2.40
2019-02-22T17:29:27.910Z,1.70
2019-02-22T17:31:56.793Z,1.83
2019-02-22T17:34:25.947Z,2.10
2019-02-22T17:36:54.895Z,2.00
2019-02-22T17:39:24.042Z,2.35
2019-02-22T17:41:52.956Z,2.37
2019-02-22T17:44:21.946Z,2.33
2019-02-22T17:46:57.627Z,2.20
2019-02-22T17:49:21.688Z,2.35
2019-02-22T17:51:50.485Z,2.10
2019-02-22T17:54:19.429Z,2.33
2019-02-22T17:56:48.689Z,2.80
2019-02-22T17:59:17.957Z,3.20
2019-02-22T18:01:47.070Z,3.70
2019-02-22T18:04:15.958Z,2.92
2019-02-22T18:06:45.296Z,3.33
2019-02-22T18:09:14.386Z,3.62
2019-02-22T18:11:43.676Z,3.33
2019-02-22T18:14:12.625Z,3.98
2019-02-22T18:16:42.218Z,3.87
2019-02-22T18:19:11.098Z,3.35
2019-02-22T18:21:40.049Z,3.90
2019-02-22T18:24:09.478Z,3.95
2019-02-22T18:26:38.929Z,4.37
2019-02-22T18:29:08.038Z,4.30
2019-02-22T18:31:36.859Z,4.23
2019-02-22T18:34:05.869Z,4.30
2019-02-22T18:36:34.812Z,4.90
2019-02-22T18:39:05.563Z,5.50
2019-02-22T18:41:34.420Z,5.25
2019-02-22T18:44:03.449Z,5.50
2019-02-22T18:46:32.371Z,5.70
2019-02-22T18:49:01.562Z,5.20
2019-02-22T18:51:30.574Z,5.72
2019-02-22T18:53:59.430Z,5.83
2019-02-22T18:56:28.298Z,5.35
2019-02-22T18:58:57.214Z,5.05
2019-02-22T19:01:26.190Z,5.23
2019-02-22T19:03:55.325Z,5.42
2019-02-22T19:06:24.578Z,6.20
2019-02-22T19:08:53.549Z,5.28
2019-02-22T19:11:22.740Z,5.73
2019-02-22T19:13:51.980Z,6.30
2019-02-22T19:16:21.107Z,4.80
2019-02-22T19:18:50.143Z,5.40
2019-02-22T19:21:19.343Z,5.13
2019-02-22T19:23:48.388Z,4.72
2019-02-22T19:26:17.305Z,5.83
2019-02-22T19:28:46.184Z,5.30
2019-02-22T19:31:15.270Z,5.30
2019-02-22T19:33:44.522Z,5.45
2019-02-22T19:36:13.779Z,6.05
2019-02-22T19:38:42.841Z,5.60
2019-02-22T19:41:11.914Z,5.97
2019-02-22T19:43:41.319Z,5.80
2019-02-22T19:46:10.319Z,5.70
2019-02-22T19:48:39.266Z,5.67
2019-02-22T19:51:08.163Z,6.27
2019-02-22T19:53:37.127Z,5.50
2019-02-22T19:56:06.076Z,6.20
2019-02-22T19:58:35.123Z,5.33
2019-02-22T20:01:04.057Z,6.17
2019-02-22T20:03:33.215Z,5.90
2019-02-22T20:06:02.254Z,5.57
2019-02-22T20:08:31.258Z,5.28
2019-02-22T20:11:00.349Z,4.90
2019-02-22T20:13:29.394Z,5.33
2019-02-22T20:15:58.262Z,5.55
2019-02-22T20:18:27.276Z,5.47
2019-02-22T20:20:56.326Z,6.07
2019-02-22T20:23:26.433Z,5.53
2019-02-22T20:25:55.658Z,5.73
2019-02-22T20:28:24.841Z,5.65
2019-02-22T20:30:53.857Z,6.00
2019-02-22T20:33:23.473Z,5.37
2019-02-22T20:35:52.402Z,6.42
2019-02-22T20:38:21.446Z,5.95
2019-02-22T20:40:50.580Z,5.60
2019-02-22T20:43:19.551Z,5.80
2019-02-22T20:45:48.685Z,5.50
2019-02-22T20:48:17.547Z,6.05
2019-02-22T20:50:46.470Z,5.50
2019-02-22T20:53:15.430Z,5.87
2019-02-22T20:55:44.339Z,6.22
2019-02-22T20:58:13.442Z,5.92
2019-02-22T21:00:42.487Z,5.87
2019-02-22T21:03:11.568Z,5.83
2019-02-22T21:05:40.483Z,6.63
2019-02-22T21:08:09.770Z,6.90
2019-02-22T21:10:38.786Z,6.77
2019-02-22T21:13:07.763Z,6.35
2019-02-22T21:15:36.852Z,6.73
2019-02-22T21:18:15.990Z,6.28
2019-02-22T21:20:36.782Z,7.03
2019-02-22T21:23:05.790Z,6.30
2019-02-22T21:25:34.985Z,6.20
2019-02-22T21:28:03.960Z,6.12
2019-02-22T21:30:32.807Z,6.22
2019-02-22T21:33:01.653Z,6.62
2019-02-22T21:35:30.722Z,7.08
2019-02-22T21:37:59.741Z,6.00
2019-02-22T21:40:28.692Z,6.37
2019-02-22T21:42:57.757Z,6.37
2019-02-22T21:45:26.721Z,6.73
2019-02-22T21:47:56.290Z,6.78
2019-02-22T21:50:25.253Z,6.30
2019-02-22T21:52:54.235Z,6.17
2019-02-22T21:55:23.062Z,6.65
2019-02-22T21:57:52.094Z,6.25
2019-02-22T22:00:21.023Z,7.10
2019-02-22T22:02:49.949Z,9.10
2019-02-22T22:05:19.021Z,9.40
2019-02-22T22:07:47.984Z,7.83
2019-02-22T22:10:17.351Z,7.40
2019-02-22T22:12:46.567Z,6.95
2019-02-22T22:15:15.736Z,8.08
2019-02-22T22:17:44.719Z,6.92
2019-02-22T22:20:13.717Z,7.05
2019-02-22T22:22:42.961Z,6.92
2019-02-22T22:25:11.915Z,6.70
2019-02-22T22:27:40.964Z,6.65
2019-02-22T22:30:11.067Z,6.20
2019-02-22T22:32:40.116Z,6.42
2019-02-22T22:35:09.916Z,7.15
2019-02-22T22:37:38.853Z,7.58
2019-02-22T22:40:08.834Z,5.97
2019-02-22T22:42:37.829Z,7.10
2019-02-22T22:45:07.951Z,5.92
2019-02-22T22:47:36.822Z,6.30
2019-02-22T22:50:07.066Z,5.92
2019-02-22T22:52:36.054Z,7.08
2019-02-22T22:55:05.055Z,6.00
2019-02-22T22:57:34.133Z,5.47
2019-02-22T23:00:03.450Z,5.95
2019-02-22T23:02:32.358Z,5.60
2019-02-22T23:05:01.512Z,6.40
2019-02-22T23:07:30.452Z,5.87
2019-02-22T23:09:59.674Z,5.70
2019-02-22T23:12:28.642Z,6.27
2019-02-22T23:14:58.023Z,5.85
2019-02-22T23:17:27.039Z,5.37
2019-02-22T23:19:56.014Z,6.25
2019-02-22T23:22:25.068Z,6.70
2019-02-22T23:24:54.142Z,6.17
2019-02-22T23:27:23.160Z,5.57
2019-02-22T23:29:52.144Z,5.50
2019-02-22T23:32:21.302Z,5.73
2019-02-22T23:34:50.203Z,5.92
2019-02-22T23:37:19.595Z,5.80
2019-02-22T23:39:48.490Z,5.80
2019-02-22T23:42:17.354Z,5.67
2019-02-22T23:44:46.284Z,6.28
2019-02-22T23:47:15.371Z,5.70
2019-02-22T23:49:44.463Z,5.95
2019-02-22T23:52:13.327Z,6.08
2019-02-22T23:54:42.679Z,5.72
2019-02-22T23:57:11.850Z,6.30
2019-02-22T23:59:41.033Z,5.15
